CheckWX is a tool to help pilots better visualize weather data.  It is not intended as a substitute for an official pre-flight weather briefing.

14:38:18 UTC

KIPT METAR
Williamsport Regional Airport
Williamsport, Pennsylvania, USA
Current

29 mins ago

KIPT 261409Z 11009KT 10SM -RA BKN011 BKN019 OVC080 13/11 A2951 RMK AO2 LTG DSNT SE P0000 T01280111
Observed
Apr-26 @ 14:09 UTC
Wind
  • 110° at 9 KTS
Visibility
10 SM
Flight Rules
MVFR
Conditions
Light Rain
Cloud Levels
  • Broken at 1,100' AGL
  • Broken at 1,900' AGL
  • Overcast at 8,000' AGL
Temperature
13°C / 55°F
Dewpoint
11°C / 52°F
Humidity
88%
Altimeter
29.51" Hg
Pressure
999.32 hPa
Current Rain
0.01"
Previous

44 mins ago

KIPT 261354Z 09009KT 7SM -RA SCT013 BKN041 OVC080 13/11 A2953 RMK AO2 SLP999 P0006 T01280111
Observed
Apr-26 @ 13:54 UTC
Wind
  • 090° at 9 KTS
Visibility
7 SM
Flight Rules
VFR
Conditions
Light Rain
Cloud Levels
  • Scattered at 1,300' AGL
  • Broken at 4,100' AGL
  • Overcast at 8,000' AGL
Temperature
13°C / 55°F
Dewpoint
11°C / 52°F
Humidity
88%
Altimeter
29.53" Hg
Pressure
1000.02 hPa
Current Rain
0.06"
Previous

1 hour ago

KIPT 261316Z 10008KT 8SM -RA SCT017 BKN080 OVC100 12/11 A2956 RMK AO2 P0002 T01220106
Observed
Apr-26 @ 13:16 UTC
Wind
  • 100° at 8 KTS
Visibility
8 SM
Flight Rules
VFR
Conditions
Light Rain
Cloud Levels
  • Scattered at 1,700' AGL
  • Broken at 8,000' AGL
  • Overcast at 10,000' AGL
Temperature
12°C / 54°F
Dewpoint
11°C / 52°F
Humidity
94%
Altimeter
29.56" Hg
Pressure
1001.02 hPa
Current Rain
0.02"